Josephine Anne — WDD9858 — position and weather

sailwx.info

Track history (hours):
 
Tides and Currents Weather Stations Pressure Air Temp Water Temp Dewpoint Dewpoint Depression Visibility Wind Speed Wind Dir Waves Ship Positions

Josephine Anne

Owner: E.N. Bisso & Son, Inc., New Orleans, LA. More information available from US FCC via Universal Licensing System and Coast Guard Vessel Documentation Center.

Last reported at 2016-Jul-22 01:30 UTC. Time now 2016-Jul-24 22:23 UTC.
Position N 29°57' W 090°09'.

Length 29 m; draft 4.3 m.

Type: Tug. MMSI: 367317270.

Date/timePositionNaut miles runAvg speedWind from/ knotsBaromVisibWave heightAir tempDewpointWater temp
2016-Jul-22 01:30N 29°57' W 090°09'3 1.3
2016-Jul-21 23:33N 29°55' W 090°07'1 1.2
2016-Jul-21 22:33N 29°55' W 090°05'1 0.9
2016-Jul-21 21:33N 29°55' W 090°04'0 0.0
2016-Jul-21 20:33N 29°55' W 090°04'1 0.7
2016-Jul-21 19:33N 29°55' W 090°04'0 0.0
2016-Jul-21 18:33N 29°55' W 090°04'0 0.0
2016-Jul-21 17:33N 29°55' W 090°04'4 4.3
2016-Jul-21 16:33N 29°56' W 090°09'1 0.7
2016-Jul-21 15:33N 29°56' W 090°08'0 0.0
2016-Jul-21 14:33N 29°56' W 090°08'1 0.8
2016-Jul-21 13:33N 29°56' W 090°09'1 0.8
2016-Jul-21 12:33N 29°56' W 090°08'0 0.0
2016-Jul-21 11:33N 29°55' W 090°08'2 2.0
2016-Jul-21 10:33N 29°57' W 090°10'1 0.0
2016-Jul-19 21:25N 29°57' W 090°09'2 2.0
2016-Jul-19 20:33N 29°56' W 090°08'0 0.0
2016-Jul-19 19:33N 29°56' W 090°08'0 0.0
2016-Jul-19 18:33N 29°56' W 090°08'0 0.0
2016-Jul-19 17:33N 29°56' W 090°08'0 0.0
2016-Jul-19 16:33N 29°56' W 090°08'0 0.0
2016-Jul-19 15:33N 29°56' W 090°08'3 1.2
2016-Jul-19 13:17N 29°56' W 090°11'  
2016-Jul-17 07:34N 29°55' W 090°06'4 4.3
2016-Jul-17 06:33N 29°58' W 090°02'0 0.0
2016-Jul-17 04:34N 29°58' W 090°02'0 0.0
2016-Jul-17 03:34N 29°58' W 090°02'1 0.8
2016-Jul-17 02:34N 29°57' W 090°01'1 0.7
2016-Jul-17 01:33N 29°58' W 090°02'0 0.0
2016-Jul-17 00:33N 29°58' W 090°02'2 2.5
2016-Jul-16 23:34N 29°56' W 090°04'  
Track history (hours):
 
Tides and Currents Weather Stations Pressure Air Temp Water Temp Dewpoint Dewpoint Depression Visibility Wind Speed Wind Dir Waves Ship Positions

Josephine Anne

Owner: E.N. Bisso & Son, Inc., New Orleans, LA. More information available from US FCC via Universal Licensing System and Coast Guard Vessel Documentation Center.

Last reported at 2016-Jul-22 01:30 UTC. Time now 2016-Jul-24 22:23 UTC.
Position N 29°57' W 090°09'.

Length 29 m; draft 4.3 m.

Type: Tug. MMSI: 367317270.

Date/timePositionNaut miles runAvg speedWind from/ knotsBaromVisibWave heightAir tempDewpointWater temp
2016-Jul-22 01:30N 29°57' W 090°09'3 1.3
2016-Jul-21 23:33N 29°55' W 090°07'1 1.2
2016-Jul-21 22:33N 29°55' W 090°05'1 0.9
2016-Jul-21 21:33N 29°55' W 090°04'0 0.0
2016-Jul-21 20:33N 29°55' W 090°04'1 0.7
2016-Jul-21 19:33N 29°55' W 090°04'0 0.0
2016-Jul-21 18:33N 29°55' W 090°04'0 0.0
2016-Jul-21 17:33N 29°55' W 090°04'4 4.3
2016-Jul-21 16:33N 29°56' W 090°09'1 0.7
2016-Jul-21 15:33N 29°56' W 090°08'0 0.0
2016-Jul-21 14:33N 29°56' W 090°08'1 0.8
2016-Jul-21 13:33N 29°56' W 090°09'1 0.8
2016-Jul-21 12:33N 29°56' W 090°08'0 0.0
2016-Jul-21 11:33N 29°55' W 090°08'2 2.0
2016-Jul-21 10:33N 29°57' W 090°10'1 0.0
2016-Jul-19 21:25N 29°57' W 090°09'2 2.0
2016-Jul-19 20:33N 29°56' W 090°08'0 0.0
2016-Jul-19 19:33N 29°56' W 090°08'0 0.0
2016-Jul-19 18:33N 29°56' W 090°08'0 0.0
2016-Jul-19 17:33N 29°56' W 090°08'0 0.0
2016-Jul-19 16:33N 29°56' W 090°08'0 0.0
2016-Jul-19 15:33N 29°56' W 090°08'3 1.2
2016-Jul-19 13:17N 29°56' W 090°11'  
2016-Jul-17 07:34N 29°55' W 090°06'4 4.3
2016-Jul-17 06:33N 29°58' W 090°02'0 0.0
2016-Jul-17 04:34N 29°58' W 090°02'0 0.0
2016-Jul-17 03:34N 29°58' W 090°02'1 0.8
2016-Jul-17 02:34N 29°57' W 090°01'1 0.7
2016-Jul-17 01:33N 29°58' W 090°02'0 0.0
2016-Jul-17 00:33N 29°58' W 090°02'2 2.5
2016-Jul-16 23:34N 29°56' W 090°04'  

Dump ship's entire track history